createdAt,value
2019-03-24T00:02:59.214Z,73.62
2019-03-24T00:07:06.799Z,73.70
2019-03-24T00:11:14.431Z,74.08
2019-03-24T00:15:26.438Z,74.19
2019-03-24T00:19:31.292Z,74.27
2019-03-24T00:23:38.784Z,74.56
2019-03-24T00:27:48.699Z,74.23
2019-03-24T00:31:56.198Z,74.48
2019-03-24T00:36:04.727Z,74.46
2019-03-24T00:40:13.989Z,74.78
2019-03-24T00:44:21.637Z,74.70
2019-03-24T00:48:29.196Z,74.26
2019-03-24T00:52:36.771Z,74.87
2019-03-24T00:56:44.277Z,75.05
2019-03-24T01:00:53.507Z,75.02
2019-03-24T01:05:01.186Z,75.28
2019-03-24T01:09:12.311Z,75.22
2019-03-24T01:13:20.040Z,75.62
2019-03-24T01:17:27.723Z,75.67
2019-03-24T01:21:36.322Z,75.72
2019-03-24T01:25:43.974Z,75.50
2019-03-24T01:29:51.936Z,76.09
2019-03-24T01:33:59.594Z,76.21
2019-03-24T01:38:07.512Z,76.08
2019-03-24T01:42:14.987Z,76.26
2019-03-24T01:46:22.664Z,76.26
2019-03-24T01:50:30.379Z,76.24
2019-03-24T01:54:41.175Z,76.66
2019-03-24T01:58:48.713Z,76.75
2019-03-24T02:02:56.232Z,76.71
2019-03-24T02:07:03.931Z,76.88
2019-03-24T02:11:11.523Z,76.92
2019-03-24T02:15:19.180Z,77.17
2019-03-24T02:19:26.743Z,76.90
2019-03-24T02:23:34.428Z,76.93
2019-03-24T02:27:43.079Z,77.33
2019-03-24T02:31:50.755Z,77.44
2019-03-24T02:35:59.501Z,77.53
2019-03-24T02:40:08.089Z,77.59
2019-03-24T02:44:15.750Z,77.85
2019-03-24T02:48:23.244Z,77.74
2019-03-24T02:52:30.950Z,77.62
2019-03-24T02:56:38.451Z,77.87
2019-03-24T03:00:46.204Z,77.99
2019-03-24T03:04:53.907Z,77.84
2019-03-24T03:09:01.494Z,78.11
2019-03-24T03:13:10.521Z,78.05
2019-03-24T03:17:18.056Z,77.72
2019-03-24T03:21:25.742Z,78.42
2019-03-24T03:25:33.373Z,78.08
2019-03-24T03:29:40.979Z,78.68
2019-03-24T03:33:48.540Z,78.78
2019-03-24T03:37:56.165Z,78.89
2019-03-24T03:42:03.764Z,79.51
2019-03-24T03:46:11.350Z,79.01
2019-03-24T03:50:18.960Z,79.23
2019-03-24T03:54:26.442Z,79.32
2019-03-24T03:58:34.050Z,79.85
2019-03-24T04:02:41.586Z,79.80
2019-03-24T04:06:49.341Z,79.89
2019-03-24T04:10:56.970Z,79.88
2019-03-24T04:15:04.747Z,79.53
2019-03-24T04:19:12.341Z,80.02
2019-03-24T04:23:19.970Z,79.97
2019-03-24T04:27:27.565Z,79.88
2019-03-24T04:31:35.207Z,79.76
2019-03-24T04:35:42.842Z,79.58
2019-03-24T04:39:50.456Z,79.78
2019-03-24T04:43:58.979Z,80.08
2019-03-24T04:48:06.802Z,80.29
2019-03-24T04:52:14.511Z,80.06
2019-03-24T04:56:22.074Z,80.60
2019-03-24T05:00:38.714Z,80.91
2019-03-24T05:04:46.214Z,80.87
2019-03-24T05:08:54.361Z,80.90
2019-03-24T05:13:02.090Z,81.16
2019-03-24T05:17:11.230Z,80.96
2019-03-24T05:21:18.810Z,81.43
2019-03-24T05:25:26.500Z,81.60
2019-03-24T05:29:34.210Z,81.71
2019-03-24T05:33:41.731Z,81.78
2019-03-24T05:37:49.249Z,81.89
2019-03-24T05:41:56.922Z,82.13
2019-03-24T05:46:04.554Z,82.22
2019-03-24T05:50:12.246Z,82.25
2019-03-24T05:54:19.955Z,81.87
2019-03-24T05:58:27.528Z,82.09
2019-03-24T06:02:35.034Z,81.51
2019-03-24T06:06:42.664Z,81.45
2019-03-24T06:10:50.400Z,81.08
2019-03-24T06:14:57.977Z,80.83
2019-03-24T06:19:05.895Z,80.64
2019-03-24T06:23:13.554Z,80.08
2019-03-24T06:27:21.436Z,80.03
2019-03-24T06:31:29.229Z,79.59
2019-03-24T06:35:36.961Z,79.47
2019-03-24T06:39:44.622Z,78.90
2019-03-24T06:43:52.756Z,78.39
2019-03-24T06:48:00.538Z,78.71
2019-03-24T06:52:08.203Z,78.32
2019-03-24T06:56:17.374Z,78.24
2019-03-24T07:00:25.107Z,77.87
2019-03-24T07:04:32.795Z,77.77
2019-03-24T07:08:40.507Z,77.48
2019-03-24T07:12:48.170Z,77.29
2019-03-24T07:16:55.716Z,76.95
2019-03-24T07:21:03.306Z,76.80
2019-03-24T07:25:11.090Z,76.32
2019-03-24T07:29:19.260Z,75.95
2019-03-24T07:33:27.004Z,75.04
2019-03-24T07:37:34.712Z,74.87
2019-03-24T07:41:45.425Z,74.73
2019-03-24T07:45:52.055Z,74.02
2019-03-24T07:49:59.560Z,73.80
2019-03-24T07:54:07.221Z,73.11
2019-03-24T07:58:15.014Z,72.19
2019-03-24T08:02:24.117Z,72.56
2019-03-24T08:06:31.872Z,71.44
2019-03-24T08:10:39.670Z,71.42
2019-03-24T08:14:47.390Z,70.62
2019-03-24T08:18:54.887Z,70.26
2019-03-24T08:23:02.707Z,69.95
2019-03-24T08:27:10.501Z,69.55
2019-03-24T08:31:18.969Z,69.21
2019-03-24T08:35:26.883Z,68.49
2019-03-24T08:39:34.597Z,67.83
2019-03-24T08:43:42.579Z,66.25
2019-03-24T08:47:50.289Z,67.05
2019-03-24T08:51:58.074Z,66.69
2019-03-24T08:56:06.233Z,65.52
2019-03-24T09:00:14.843Z,64.42
2019-03-24T09:04:24.517Z,62.88
2019-03-24T09:08:32.483Z,61.15
2019-03-24T09:12:40.278Z,62.19
2019-03-24T09:16:48.081Z,62.80
2019-03-24T09:20:57.061Z,62.02
2019-03-24T09:25:07.881Z,61.15
2019-03-24T09:29:15.961Z,59.35
2019-03-24T09:33:23.568Z,58.65
2019-03-24T09:37:31.582Z,57.75
2019-03-24T09:41:40.768Z,57.21
2019-03-24T09:45:48.735Z,58.07
2019-03-24T09:49:56.383Z,57.67
2019-03-24T09:54:04.679Z,57.40
2019-03-24T09:58:12.506Z,57.74
2019-03-24T10:02:20.587Z,59.04
2019-03-24T10:06:28.371Z,59.69
2019-03-24T10:10:36.045Z,59.99
2019-03-24T10:14:43.694Z,60.40
2019-03-24T10:18:51.334Z,60.76
2019-03-24T10:22:59.034Z,58.74
2019-03-24T10:27:06.870Z,59.14
2019-03-24T10:31:14.904Z,57.16
2019-03-24T10:35:22.827Z,56.79
2019-03-24T10:39:31.999Z,56.28
2019-03-24T10:43:40.025Z,54.33
2019-03-24T10:47:47.965Z,54.90
2019-03-24T10:51:56.063Z,54.39
2019-03-24T10:56:03.970Z,53.55
2019-03-24T11:00:14.212Z,52.61
2019-03-24T11:04:22.172Z,52.04
2019-03-24T11:08:30.094Z,53.50
2019-03-24T11:12:39.315Z,51.09
2019-03-24T11:16:47.173Z,49.79
2019-03-24T11:20:55.184Z,49.50
2019-03-24T11:25:03.232Z,49.76
2019-03-24T11:29:13.063Z,49.89
2019-03-24T11:33:21.483Z,49.27
2019-03-24T11:37:29.505Z,47.99
2019-03-24T11:41:37.394Z,48.00
2019-03-24T11:45:45.064Z,46.22
2019-03-24T11:49:54.581Z,45.77
2019-03-24T11:54:04.081Z,45.81
2019-03-24T11:58:11.911Z,45.23
2019-03-24T12:02:20.094Z,45.71
2019-03-24T12:06:28.135Z,43.56
2019-03-24T12:10:37.364Z,44.03
2019-03-24T12:14:48.632Z,44.33
2019-03-24T12:18:56.773Z,43.04
2019-03-24T12:23:07.363Z,42.28
2019-03-24T12:27:14.963Z,42.99
2019-03-24T12:31:32.741Z,43.08
2019-03-24T12:35:40.905Z,45.35
2019-03-24T12:39:49.118Z,42.99
2019-03-24T12:44:09.476Z,43.29
2019-03-24T12:48:22.290Z,44.92
2019-03-24T12:52:30.607Z,45.89
2019-03-24T12:56:38.685Z,47.58
2019-03-24T13:00:47.765Z,47.91
2019-03-24T13:04:59.087Z,48.71
2019-03-24T13:09:08.669Z,49.54
2019-03-24T13:13:16.584Z,49.54
2019-03-24T13:17:26.556Z,49.53
2019-03-24T13:21:34.268Z,49.52
2019-03-24T13:25:41.981Z,49.10
2019-03-24T13:29:49.797Z,47.70
2019-03-24T13:33:57.838Z,48.89
2019-03-24T13:38:07.885Z,48.76
2019-03-24T13:42:15.601Z,48.96
2019-03-24T13:46:23.583Z,49.77
2019-03-24T13:50:32.019Z,49.53
2019-03-24T13:54:39.831Z,49.98
2019-03-24T13:58:47.745Z,50.14
2019-03-24T14:02:55.569Z,51.20
2019-03-24T14:07:03.276Z,51.60
2019-03-24T14:11:11.228Z,52.30
2019-03-24T14:15:18.762Z,52.43
2019-03-24T14:19:26.561Z,52.88
2019-03-24T14:23:37.443Z,52.36
2019-03-24T14:27:45.456Z,51.19
2019-03-24T14:31:53.392Z,51.38
2019-03-24T14:36:00.990Z,51.75
2019-03-24T14:40:09.123Z,52.28
2019-03-24T14:44:16.770Z,52.14
2019-03-24T14:48:24.551Z,52.23
2019-03-24T14:52:32.135Z,52.39
2019-03-24T14:56:40.087Z,52.39
2019-03-24T15:00:48.192Z,52.78
2019-03-24T15:04:55.988Z,52.30
2019-03-24T15:09:04.673Z,52.58
2019-03-24T15:13:12.476Z,53.16
2019-03-24T15:17:20.106Z,53.13
2019-03-24T15:21:29.060Z,53.49
2019-03-24T15:25:39.916Z,53.46
2019-03-24T15:29:52.298Z,53.59
2019-03-24T15:34:07.872Z,53.61
2019-03-24T15:38:15.564Z,54.04
2019-03-24T15:42:27.512Z,54.51
2019-03-24T15:46:33.521Z,54.02
2019-03-24T15:50:41.888Z,54.25
2019-03-24T15:54:50.351Z,54.09
2019-03-24T15:59:00.401Z,53.49
2019-03-24T16:03:09.873Z,53.67
2019-03-24T16:07:19.190Z,52.77
2019-03-24T16:11:44.821Z,52.78
2019-03-24T16:15:59.242Z,52.99
2019-03-24T16:20:07.520Z,53.50
2019-03-24T16:24:15.360Z,53.74
2019-03-24T16:28:23.177Z,53.50
2019-03-24T16:32:31.202Z,53.98
2019-03-24T16:36:38.924Z,53.75
2019-03-24T16:40:47.047Z,54.11
2019-03-24T16:44:55.135Z,54.75
2019-03-24T16:49:04.399Z,54.52
2019-03-24T16:53:12.120Z,54.64
2019-03-24T16:57:19.841Z,54.55
2019-03-24T17:01:27.429Z,54.17
2019-03-24T17:05:35.734Z,54.55
2019-03-24T17:09:43.505Z,54.43
2019-03-24T17:13:51.190Z,54.90
2019-03-24T17:17:58.956Z,54.79
2019-03-24T17:22:06.828Z,55.23
2019-03-24T17:26:14.537Z,54.92
2019-03-24T17:30:22.242Z,55.22
2019-03-24T17:34:30.002Z,55.09
2019-03-24T17:38:38.409Z,55.35
2019-03-24T17:42:47.107Z,55.99
2019-03-24T17:46:54.885Z,56.67
2019-03-24T17:51:02.786Z,56.96
2019-03-24T17:55:12.711Z,57.54
2019-03-24T17:59:20.783Z,57.70
2019-03-24T18:03:28.556Z,58.33
2019-03-24T18:07:36.190Z,58.68
2019-03-24T18:11:46.691Z,58.74
2019-03-24T18:15:54.616Z,58.94
2019-03-24T18:20:02.292Z,58.63
2019-03-24T18:24:10.788Z,59.24
2019-03-24T18:28:18.429Z,59.46
2019-03-24T18:32:25.995Z,59.40
2019-03-24T18:36:33.816Z,59.29
2019-03-24T18:40:43.566Z,59.51
2019-03-24T18:44:51.231Z,59.32
2019-03-24T18:48:58.896Z,59.92
2019-03-24T18:53:09.027Z,59.41
2019-03-24T18:57:17.070Z,59.63
2019-03-24T19:01:24.952Z,59.65
2019-03-24T19:05:35.126Z,59.66
2019-03-24T19:09:42.520Z,59.75
2019-03-24T19:13:50.974Z,59.74
2019-03-24T19:17:58.892Z,59.50
2019-03-24T19:22:07.334Z,59.44
2019-03-24T19:26:14.948Z,59.33
2019-03-24T19:30:35.244Z,59.11
2019-03-24T19:34:42.937Z,59.77
2019-03-24T19:38:50.783Z,58.36
2019-03-24T19:42:58.772Z,58.10
2019-03-24T19:47:07.814Z,57.66
2019-03-24T19:51:15.365Z,57.13
2019-03-24T19:55:22.955Z,56.97
2019-03-24T19:59:30.514Z,56.33
2019-03-24T20:03:38.021Z,55.05
2019-03-24T20:07:48.090Z,54.80
2019-03-24T20:11:55.148Z,54.20
2019-03-24T20:16:02.881Z,53.80
2019-03-24T20:20:10.585Z,53.04
2019-03-24T20:24:18.321Z,52.03
2019-03-24T20:28:25.976Z,51.55
2019-03-24T20:32:33.618Z,50.76
2019-03-24T20:36:44.303Z,50.36
2019-03-24T20:40:52.083Z,49.82
2019-03-24T20:45:01.151Z,49.47
2019-03-24T20:49:09.024Z,49.36
2019-03-24T20:53:18.486Z,48.95
2019-03-24T20:57:26.247Z,48.73
2019-03-24T21:01:33.778Z,48.87
2019-03-24T21:05:41.636Z,48.27
2019-03-24T21:09:49.314Z,48.53
2019-03-24T21:13:57.021Z,47.65
2019-03-24T21:18:04.946Z,47.92
2019-03-24T21:22:13.999Z,47.48
2019-03-24T21:26:21.809Z,47.53
2019-03-24T21:30:37.988Z,47.29
2019-03-24T21:34:45.490Z,46.42
2019-03-24T21:38:52.988Z,46.37
2019-03-24T21:43:00.510Z,46.30
2019-03-24T21:47:09.128Z,46.11
2019-03-24T21:51:16.959Z,45.77
2019-03-24T21:55:24.474Z,45.83
2019-03-24T21:59:32.048Z,46.03
2019-03-24T22:03:39.595Z,45.49
2019-03-24T22:07:47.319Z,47.37
2019-03-24T22:11:54.876Z,46.12
2019-03-24T22:16:02.390Z,45.59
2019-03-24T22:20:10.101Z,46.33
2019-03-24T22:24:17.715Z,46.23
2019-03-24T22:28:25.233Z,45.64
2019-03-24T22:32:32.727Z,45.81
2019-03-24T22:36:40.281Z,46.25
2019-03-24T22:40:47.773Z,46.12
2019-03-24T22:44:55.310Z,46.40
2019-03-24T22:49:02.860Z,47.27
2019-03-24T22:53:10.337Z,47.52
2019-03-24T22:57:17.852Z,48.05
2019-03-24T23:01:25.550Z,48.38
2019-03-24T23:05:33.136Z,49.18
2019-03-24T23:09:40.642Z,49.45
2019-03-24T23:13:48.167Z,49.85
2019-03-24T23:17:55.714Z,49.70
2019-03-24T23:22:06.159Z,49.71
2019-03-24T23:26:13.704Z,50.17
2019-03-24T23:30:21.373Z,50.22
2019-03-24T23:34:28.934Z,50.44
2019-03-24T23:38:36.481Z,50.64
2019-03-24T23:42:44.105Z,51.04
2019-03-24T23:46:51.617Z,51.58
2019-03-24T23:51:01.222Z,51.94
2019-03-24T23:55:08.933Z,52.15
2019-03-24T23:59:16.583Z,52.16
